Time;durP1;ratioP1;P1;durP2;ratioP2;P2;SDS_P1;SDS_P2;PMS_P1;PMS_P2;Temp;Humidity;BMP_temperature;BMP_pressure;BME280_temperature;BME280_humidity;BME280_pressure;Samples;Min_cycle;Max_cycle;Signal;HPM_P1;HPM_P2
2022/10/17 00:00:43;;;;;;;7.20;6.50;;;16.70;99.90;;;;;;5119875;28;20642;-79
2022/10/17 00:03:09;;;;;;;7.87;6.30;;;16.80;99.90;;;;;;5118477;28;20163;-79
2022/10/17 00:05:40;;;;;;;7.97;7.00;;;16.80;99.90;;;;;;5120258;28;20641;-78
2022/10/17 00:08:06;;;;;;;7.40;6.80;;;16.80;99.90;;;;;;5117706;28;20646;-79
2022/10/17 00:10:31;;;;;;;9.57;6.63;;;16.90;99.90;;;;;;5118904;28;20167;-79
2022/10/17 00:12:57;;;;;;;11.00;7.00;;;16.90;99.90;;;;;;5118301;28;20167;-79
2022/10/17 00:15:23;;;;;;;9.95;7.00;;;16.90;99.90;;;;;;5121575;28;20202;-79
2022/10/17 00:17:48;;;;;;;7.37;6.57;;;16.90;99.90;;;;;;5123218;28;20178;-79
2022/10/17 00:20:16;;;;;;;7.80;7.00;;;16.90;99.90;;;;;;5124156;28;20518;-79
2022/10/17 00:22:42;;;;;;;8.50;7.67;;;16.90;99.90;;;;;;5124247;28;20567;-79
2022/10/17 00:25:07;;;;;;;8.97;7.20;;;16.90;99.90;;;;;;5124615;28;20171;-79
2022/10/17 00:27:38;;;;;;;11.73;7.93;;;17.00;99.90;;;;;;5122046;28;20221;-77
2022/10/17 00:30:06;;;;;;;9.43;7.93;;;17.10;99.90;;;;;;5123544;28;20183;-78
2022/10/17 00:32:32;;;;;;;7.20;6.43;;;17.10;99.90;;;;;;5121040;28;20736;-77
2022/10/17 00:34:58;;;;;;;8.00;6.43;;;17.10;99.90;;;;;;5122291;28;20167;-79
2022/10/17 00:37:24;;;;;;;8.68;6.90;;;17.20;99.90;;;;;;5124396;28;20171;-79
2022/10/17 00:39:50;;;;;;;10.45;7.10;;;17.20;99.90;;;;;;5122667;28;20167;-78
2022/10/17 00:42:15;;;;;;;8.52;6.45;;;17.30;99.90;;;;;;5123425;28;20206;-79
2022/10/17 00:44:41;;;;;;;6.65;5.95;;;17.30;99.90;;;;;;5125495;28;20183;-78
2022/10/17 00:47:18;;;;;;;7.43;6.28;;;17.50;99.90;;;;;;5123373;28;20186;-77
2022/10/17 00:49:44;;;;;;;7.85;6.32;;;17.60;99.90;;;;;;5123254;28;20182;-78
2022/10/17 00:52:25;;;;;;;7.07;6.38;;;17.60;99.90;;;;;;5123757;28;20196;-77
2022/10/17 00:54:56;;;;;;;9.45;6.20;;;17.70;99.90;;;;;;5127961;28;20174;-75
2022/10/17 00:57:22;;;;;;;8.18;6.55;;;17.60;99.90;;;;;;5132478;28;20229;-77
2022/10/17 00:59:52;;;;;;;7.60;6.78;;;17.70;99.90;;;;;;5125132;28;20193;-77
2022/10/17 01:02:20;;;;;;;7.18;6.47;;;17.70;99.90;;;;;;5121712;28;20177;-77
2022/10/17 01:04:49;;;;;;;8.35;6.65;;;17.80;99.90;;;;;;5122345;28;20611;-76
2022/10/17 01:07:14;;;;;;;7.93;6.88;;;17.80;99.90;;;;;;5122944;28;20179;-77
2022/10/17 01:09:42;;;;;;;6.80;6.13;;;17.80;99.90;;;;;;5120339;28;20175;-78
2022/10/17 01:12:38;;;;;;;7.50;6.78;;;17.90;99.90;;;;;;5122479;28;20179;-78
2022/10/17 01:15:09;;;;;;;6.80;6.20;;;17.90;99.90;;;;;;5125365;28;20167;-78
2022/10/17 01:18:12;;;;;;;7.57;6.80;;;17.90;99.90;;;;;;5122197;28;20695;-78
2022/10/17 01:20:40;;;;;;;8.27;6.60;;;17.80;99.90;;;;;;5097937;27;20174;-77
2022/10/17 01:23:33;;;;;;;7.00;6.40;;;17.80;99.90;;;;;;5121722;28;20167;-77
2022/10/17 01:26:36;;;;;;;11.40;6.57;;;17.90;99.90;;;;;;5122185;28;20704;-78
2022/10/17 01:29:40;;;;;;;9.05;6.18;;;18.00;99.90;;;;;;5122352;28;20638;-78
2022/10/17 01:32:22;;;;;;;8.35;6.75;;;17.90;99.90;;;;;;5058763;28;20227;-78
2022/10/17 01:34:50;;;;;;;6.80;6.20;;;18.00;99.90;;;;;;5115689;27;20175;-78
2022/10/17 01:37:30;;;;;;;7.22;6.55;;;18.00;99.90;;;;;;5120642;28;20163;-78
2022/10/17 01:40:22;;;;;;;7.10;6.50;;;18.00;99.90;;;;;;5119000;28;20239;-78
2022/10/17 01:43:15;;;;;;;11.15;6.35;;;18.00;99.90;;;;;;5119888;28;20187;-78
2022/10/17 01:46:06;;;;;;;7.20;6.50;;;18.00;99.90;;;;;;5120066;28;20232;-78
2022/10/17 01:48:35;;;;;;;8.30;6.35;;;18.00;99.90;;;;;;5122045;28;20178;-78
2022/10/17 01:51:07;;;;;;;7.32;5.85;;;18.00;99.90;;;;;;5121285;28;20227;-78
2022/10/17 01:53:38;;;;;;;7.32;5.85;;;18.10;99.90;;;;;;5121156;28;20190;-78
2022/10/17 01:56:08;;;;;;;9.02;6.45;;;18.10;99.90;;;;;;5119147;28;20240;-78
2022/10/17 01:58:42;;;;;;;8.18;5.78;;;18.10;99.90;;;;;;5118390;28;20170;-78
2022/10/17 02:01:10;;;;;;;7.97;6.25;;;18.10;99.90;;;;;;5117390;28;20224;-78
2022/10/17 02:03:38;;;;;;;6.50;5.90;;;18.10;99.90;;;;;;5117032;28;20171;-78
2022/10/17 02:06:05;;;;;;;6.22;5.60;;;18.20;99.90;;;;;;5117142;28;20163;-78
2022/10/17 02:08:48;;;;;;;8.20;5.80;;;18.20;99.90;;;;;;5116285;28;20226;-78
2022/10/17 02:11:18;;;;;;;9.93;5.63;;;18.20;99.90;;;;;;5116211;28;20521;-76
2022/10/17 02:14:13;;;;;;;7.78;5.72;;;18.30;99.90;;;;;;5116411;28;20163;-76
2022/10/17 02:16:58;;;;;;;6.05;5.55;;;18.40;99.90;;;;;;5115574;28;20302;-75
2022/10/17 02:20:01;;;;;;;7.53;5.13;;;18.50;99.90;;;;;;5052354;28;20175;-78
2022/10/17 02:22:38;;;;;;;7.22;5.32;;;18.50;99.90;;;;;;5111237;28;20158;-77
2022/10/17 02:25:22;;;;;;;8.13;5.15;;;18.60;99.90;;;;;;5114085;28;20170;-79
2022/10/17 02:27:51;;;;;;;6.05;4.60;;;18.60;99.90;;;;;;5115309;28;20166;-77
2022/10/17 02:30:34;;;;;;;7.57;5.20;;;18.70;99.90;;;;;;5114887;28;20224;-77
2022/10/17 02:33:36;;;;;;;8.20;5.35;;;18.70;99.90;;;;;;5094719;28;20262;-78
2022/10/17 02:36:07;;;;;;;5.72;5.10;;;18.80;99.90;;;;;;5038095;28;20294;-78
2022/10/17 02:38:34;;;;;;;6.43;4.97;;;18.80;99.90;;;;;;5094112;28;20263;-78
2022/10/17 02:41:00;;;;;;;7.43;5.22;;;18.80;99.90;;;;;;5094716;28;20249;-78
2022/10/17 02:43:27;;;;;;;7.03;4.82;;;18.80;99.90;;;;;;5094633;28;20263;-78
2022/10/17 02:45:53;;;;;;;6.32;4.72;;;18.80;99.90;;;;;;5094096;28;20164;-78
2022/10/17 02:48:34;;;;;;;5.53;5.05;;;18.80;99.90;;;;;;5094540;28;20172;-78
2022/10/17 02:51:11;;;;;;;8.10;4.93;;;18.80;99.90;;;;;;5094263;28;20168;-78
2022/10/17 02:54:03;;;;;;;7.70;5.38;;;18.80;99.90;;;;;;5094734;28;20168;-78
2022/10/17 02:56:34;;;;;;;6.88;5.07;;;18.80;99.90;;;;;;5077429;28;20208;-78
2022/10/17 02:59:03;;;;;;;7.05;5.20;;;18.80;99.90;;;;;;5079368;28;20263;-78
2022/10/17 03:01:29;;;;;;;5.82;5.00;;;18.80;99.90;;;;;;5098079;28;20254;-78
2022/10/17 03:04:12;;;;;;;6.78;4.88;;;18.90;99.90;;;;;;5097609;28;20190;-78
2022/10/17 03:06:40;;;;;;;8.00;5.30;;;18.90;99.90;;;;;;5096618;28;20662;-78
2022/10/17 03:09:06;;;;;;;5.55;5.05;;;18.90;99.90;;;;;;5095385;28;20198;-77
2022/10/17 03:11:32;;;;;;;7.90;5.50;;;18.90;99.90;;;;;;5094567;28;20172;-78
2022/10/17 03:13:57;;;;;;;6.38;5.00;;;18.90;99.90;;;;;;5075892;28;20187;-79
2022/10/17 03:16:23;;;;;;;5.53;5.03;;;19.00;99.90;;;;;;5094365;28;20238;-77
2022/10/17 03:18:49;;;;;;;5.15;4.75;;;19.00;99.90;;;;;;5094647;28;20171;-77
2022/10/17 03:21:15;;;;;;;6.95;5.05;;;18.90;99.90;;;;;;5076630;28;20175;-77
2022/10/17 03:23:40;;;;;;;7.30;5.28;;;18.90;99.90;;;;;;5094415;28;20195;-79
2022/10/17 03:26:06;;;;;;;6.85;5.50;;;18.90;99.90;;;;;;5093711;28;20168;-79
2022/10/17 03:28:32;;;;;;;6.88;5.18;;;18.80;99.90;;;;;;5093257;28;20167;-76
2022/10/17 03:30:58;;;;;;;6.95;5.75;;;18.80;99.90;;;;;;5097309;28;20227;-79
2022/10/17 03:33:24;;;;;;;7.15;5.38;;;18.80;99.90;;;;;;5113845;28;20190;-79
2022/10/17 03:35:49;;;;;;;5.97;5.50;;;18.80;99.90;;;;;;5113705;28;20242;-79
2022/10/17 03:38:15;;;;;;;6.50;5.63;;;18.80;99.90;;;;;;5113804;28;20174;-78
2022/10/17 03:40:41;;;;;;;5.63;5.13;;;18.80;99.90;;;;;;5113363;28;20167;-79
2022/10/17 03:43:06;;;;;;;7.32;5.43;;;18.80;99.90;;;;;;5113072;28;20168;-79
2022/10/17 03:45:32;;;;;;;7.60;5.93;;;18.80;99.90;;;;;;5113588;28;20173;-79
2022/10/17 03:47:58;;;;;;;11.38;6.05;;;18.80;99.90;;;;;;5113265;28;20171;-79
2022/10/17 03:50:24;;;;;;;9.48;5.93;;;18.70;99.90;;;;;;5111428;28;20258;-79
2022/10/17 03:52:50;;;;;;;6.30;5.68;;;18.70;99.90;;;;;;5113368;28;20739;-79
2022/10/17 03:55:16;;;;;;;6.32;5.72;;;18.70;99.90;;;;;;5113219;28;20697;-79
2022/10/17 03:57:41;;;;;;;7.90;6.15;;;18.70;99.90;;;;;;5112821;28;20164;-79
2022/10/17 04:00:08;;;;;;;6.95;6.00;;;18.70;99.90;;;;;;5113476;28;20190;-79
2022/10/17 04:02:34;;;;;;;8.93;5.40;;;18.70;99.90;;;;;;5113304;28;20619;-79
2022/10/17 04:05:00;;;;;;;6.07;5.47;;;18.60;99.90;;;;;;5112777;28;20621;-79
2022/10/17 04:07:25;;;;;;;9.43;6.20;;;18.70;99.90;;;;;;5112979;28;20194;-79
2022/10/17 04:09:51;;;;;;;7.28;5.90;;;18.70;99.90;;;;;;5113261;28;20179;-79
2022/10/17 04:12:17;;;;;;;6.75;5.40;;;18.70;99.90;;;;;;5112465;28;20171;-79
2022/10/17 04:14:42;;;;;;;6.13;5.55;;;18.70;99.90;;;;;;5113120;28;20174;-79
2022/10/17 04:17:08;;;;;;;5.68;5.25;;;18.70;99.90;;;;;;5113272;28;20543;-79
2022/10/17 04:19:34;;;;;;;8.02;5.47;;;18.70;99.90;;;;;;5113165;28;20164;-79
2022/10/17 04:22:01;;;;;;;7.22;5.45;;;18.70;99.90;;;;;;5113109;28;20229;-79
2022/10/17 04:24:27;;;;;;;9.20;5.70;;;18.70;99.90;;;;;;5112862;28;20168;-79
2022/10/17 04:26:53;;;;;;;5.70;5.10;;;18.70;99.90;;;;;;5112645;28;20163;-79
2022/10/17 04:29:19;;;;;;;6.25;5.28;;;18.60;99.90;;;;;;5113043;28;20585;-79
2022/10/17 04:31:45;;;;;;;7.00;5.40;;;18.70;99.90;;;;;;5112919;28;20238;-79
2022/10/17 04:34:13;;;;;;;6.57;5.32;;;18.70;99.90;;;;;;5112699;28;20199;-79
2022/10/17 04:36:38;;;;;;;8.30;5.63;;;18.70;99.90;;;;;;5112844;28;20199;-79
2022/10/17 04:39:04;;;;;;;6.72;5.45;;;18.60;99.90;;;;;;5113024;28;20212;-79
2022/10/17 04:41:30;;;;;;;7.88;5.65;;;18.60;99.90;;;;;;5112153;28;20167;-79
2022/10/17 04:43:56;;;;;;;7.28;5.80;;;18.60;99.90;;;;;;5112365;28;20643;-79
2022/10/17 04:46:21;;;;;;;7.72;5.03;;;18.60;99.90;;;;;;5112460;28;20623;-79
2022/10/17 04:48:47;;;;;;;8.23;5.63;;;18.60;99.90;;;;;;5112655;28;20167;-79
2022/10/17 04:51:16;;;;;;;6.72;5.60;;;18.50;99.90;;;;;;5111147;28;20201;-79
2022/10/17 04:53:43;;;;;;;6.43;5.45;;;18.50;99.90;;;;;;5112191;28;20284;-79
2022/10/17 04:56:12;;;;;;;6.35;5.30;;;18.60;99.90;;;;;;5112144;28;20234;-79
2022/10/17 04:58:38;;;;;;;5.82;5.32;;;18.60;99.90;;;;;;5112597;28;20216;-79
2022/10/17 05:01:10;;;;;;;6.35;5.70;;;18.60;99.90;;;;;;5114542;28;20232;-79
2022/10/17 05:03:36;;;;;;;6.70;5.32;;;18.60;99.90;;;;;;5116449;28;20623;-80
2022/10/17 05:06:06;;;;;;;8.43;5.53;;;18.60;99.90;;;;;;5116023;28;20175;-79
2022/10/17 05:08:33;;;;;;;8.55;6.03;;;18.60;99.90;;;;;;5116132;28;20175;-80
2022/10/17 05:10:58;;;;;;;6.43;5.70;;;18.60;99.90;;;;;;5115305;28;20171;-80
2022/10/17 05:13:25;;;;;;;6.38;5.65;;;18.60;99.90;;;;;;5115781;28;20178;-80
2022/10/17 05:15:50;;;;;;;9.30;5.93;;;18.60;99.90;;;;;;5116148;28;20650;-78
2022/10/17 05:18:16;;;;;;;7.20;5.68;;;18.60;99.90;;;;;;5115530;28;20160;-80
2022/10/17 05:20:42;;;;;;;8.15;5.47;;;18.50;99.90;;;;;;5115851;28;20258;-80
2022/10/17 05:23:07;;;;;;;6.80;6.15;;;18.50;99.90;;;;;;5114809;28;20203;-79
2022/10/17 05:25:33;;;;;;;9.55;6.07;;;18.50;99.90;;;;;;5114674;28;20265;-80
2022/10/17 05:27:58;;;;;;;7.38;5.68;;;18.50;99.90;;;;;;5115461;28;20666;-80
2022/10/17 05:30:24;;;;;;;6.90;5.38;;;18.50;99.90;;;;;;5115418;28;20180;-80
2022/10/17 05:32:53;;;;;;;7.00;5.35;;;18.50;99.90;;;;;;5114427;28;20290;-81
2022/10/17 05:35:20;;;;;;;6.95;5.15;;;18.60;99.90;;;;;;5115573;28;20286;-80
2022/10/17 05:37:46;;;;;;;5.80;5.13;;;18.70;99.90;;;;;;5114077;28;20569;-80
2022/10/17 05:40:11;;;;;;;7.93;5.55;;;18.70;99.90;;;;;;5114380;28;20167;-80
2022/10/17 05:42:37;;;;;;;8.18;5.55;;;18.70;99.90;;;;;;5113982;28;20171;-80
2022/10/17 05:45:03;;;;;;;8.07;5.50;;;18.70;99.90;;;;;;5114687;28;20197;-79
2022/10/17 05:47:29;;;;;;;10.32;5.55;;;18.70;99.90;;;;;;5115050;28;20193;-80
2022/10/17 05:49:55;;;;;;;7.75;5.80;;;18.80;99.90;;;;;;5114743;28;20254;-80
2022/10/17 05:52:20;;;;;;;7.47;4.88;;;18.80;99.90;;;;;;5114357;28;20170;-78
2022/10/17 05:54:46;;;;;;;7.93;5.03;;;18.80;99.90;;;;;;5113934;28;20603;-80
2022/10/17 05:57:12;;;;;;;5.90;5.03;;;18.70;99.90;;;;;;5113668;28;20301;-80
2022/10/17 05:59:37;;;;;;;6.22;5.30;;;18.70;99.90;;;;;;5113137;28;20642;-79
2022/10/17 06:02:03;;;;;;;8.30;5.20;;;18.80;99.90;;;;;;5113216;28;20606;-80
2022/10/17 06:04:28;;;;;;;6.70;5.55;;;18.80;99.90;;;;;;5114127;28;20164;-80
2022/10/17 06:06:55;;;;;;;6.88;4.88;;;18.80;99.90;;;;;;5112630;28;20178;-80
2022/10/17 06:09:21;;;;;;;7.40;5.03;;;18.80;99.90;;;;;;5114164;28;20159;-79
2022/10/17 06:11:47;;;;;;;5.65;5.00;;;18.80;99.90;;;;;;5113245;28;20217;-78
2022/10/17 06:14:13;;;;;;;6.93;4.88;;;18.80;99.90;;;;;;5114386;28;20175;-80
2022/10/17 06:16:38;;;;;;;9.77;5.53;;;18.80;99.90;;;;;;5113691;28;20213;-81
2022/10/17 06:19:04;;;;;;;8.75;5.63;;;18.80;99.90;;;;;;5114211;28;20186;-80
2022/10/17 06:21:33;;;;;;;6.35;4.63;;;18.90;99.90;;;;;;5114539;28;20654;-80
2022/10/17 06:23:59;;;;;;;6.97;5.63;;;18.80;99.90;;;;;;5113417;28;20163;-80
2022/10/17 06:26:24;;;;;;;9.02;5.63;;;18.90;99.90;;;;;;5113769;28;20630;-78
2022/10/17 06:28:50;;;;;;;9.73;5.25;;;18.90;99.90;;;;;;5114222;28;20163;-80
2022/10/17 06:31:16;;;;;;;7.70;6.53;;;18.90;99.90;;;;;;5113085;28;20723;-80
2022/10/17 06:33:42;;;;;;;6.90;5.13;;;18.90;99.90;;;;;;5113947;28;20245;-81
2022/10/17 06:36:11;;;;;;;6.85;5.60;;;19.00;99.90;;;;;;5112785;28;20249;-80
2022/10/17 06:38:37;;;;;;;6.90;5.50;;;19.00;99.90;;;;;;5113384;28;20251;-81
2022/10/17 06:41:09;;;;;;;8.77;5.22;;;19.00;99.90;;;;;;5113726;28;20569;-79
2022/10/17 06:43:37;;;;;;;10.52;6.32;;;19.10;99.90;;;;;;5113520;28;20159;-80
2022/10/17 06:46:04;;;;;;;10.45;5.32;;;19.00;99.90;;;;;;5113621;28;20167;-80
2022/10/17 06:48:30;;;;;;;10.63;5.43;;;19.00;99.90;;;;;;5113081;28;20160;-78
2022/10/17 06:50:59;;;;;;;10.55;5.07;;;19.00;99.90;;;;;;5112864;28;20170;-79
2022/10/17 06:53:28;;;;;;;10.70;5.53;;;19.10;99.90;;;;;;5113322;28;20174;-80
2022/10/17 06:55:54;;;;;;;7.28;4.93;;;19.00;99.90;;;;;;5113320;28;20191;-80
2022/10/17 06:58:21;;;;;;;9.52;5.38;;;19.00;99.90;;;;;;5112950;28;20163;-80
2022/10/17 07:00:46;;;;;;;6.45;4.75;;;19.00;99.90;;;;;;5112499;28;20171;-79
2022/10/17 07:03:12;;;;;;;10.57;4.78;;;19.10;99.90;;;;;;5112246;28;20509;-79
2022/10/17 07:05:37;;;;;;;7.90;5.07;;;19.00;99.90;;;;;;5112107;28;20654;-79
2022/10/17 07:08:06;;;;;;;7.88;4.50;;;19.10;99.90;;;;;;5111348;28;20171;-80
2022/10/17 07:10:37;;;;;;;9.57;4.75;;;19.20;99.90;;;;;;5112736;28;20175;-80
2022/10/17 07:13:03;;;;;;;8.48;4.72;;;19.20;99.90;;;;;;5113375;28;20290;-80
2022/10/17 07:15:28;;;;;;;6.57;4.40;;;19.10;99.90;;;;;;5112620;28;20183;-80
2022/10/17 07:17:54;;;;;;;6.53;3.50;;;19.10;99.90;;;;;;5112975;28;20167;-80
2022/10/17 07:20:19;;;;;;;4.82;3.92;;;18.90;99.90;;;;;;5112861;28;20493;-80
2022/10/17 07:22:45;;;;;;;4.47;4.07;;;19.00;99.90;;;;;;5111795;28;20216;-78
2022/10/17 07:25:11;;;;;;;6.88;3.70;;;19.00;99.90;;;;;;5113722;27;20202;-80
2022/10/17 07:27:36;;;;;;;8.63;4.70;;;19.00;99.90;;;;;;5114663;27;20528;-81
2022/10/17 07:30:03;;;;;;;7.88;4.53;;;19.00;99.90;;;;;;5117859;27;20599;-80
2022/10/17 07:32:28;;;;;;;5.28;4.65;;;18.80;99.90;;;;;;5112317;28;20282;-80
2022/10/17 07:34:54;;;;;;;7.55;5.18;;;18.70;99.90;;;;;;5112077;28;20221;-81
2022/10/17 07:37:19;;;;;;;8.07;5.72;;;18.50;99.90;;;;;;5110888;28;20710;-82
2022/10/17 07:39:45;;;;;;;7.38;5.43;;;18.50;99.90;;;;;;5111316;28;20190;-81
2022/10/17 07:42:13;;;;;;;7.40;5.25;;;18.40;99.90;;;;;;5114264;28;20209;-79
2022/10/17 07:44:38;;;;;;;9.45;6.47;;;18.30;99.90;;;;;;5118566;28;20171;-79
2022/10/17 07:47:04;;;;;;;6.78;5.38;;;18.10;99.90;;;;;;5114331;28;20257;-79
2022/10/17 07:49:30;;;;;;;11.32;6.28;;;18.00;99.90;;;;;;5113555;28;20225;-80
2022/10/17 07:51:56;;;;;;;7.43;6.00;;;18.00;99.90;;;;;;5115540;28;20175;-78
2022/10/17 07:54:21;;;;;;;7.78;5.68;;;17.90;99.90;;;;;;5117043;28;20645;-81
2022/10/17 07:56:49;;;;;;;7.93;5.93;;;17.90;99.90;;;;;;5114410;28;20670;-82
2022/10/17 07:59:16;;;;;;;9.40;5.63;;;17.80;99.90;;;;;;5113660;28;20194;-78
2022/10/17 08:01:42;;;;;;;8.55;5.45;;;17.80;99.90;;;;;;5117464;28;20167;-78
2022/10/17 08:04:07;;;;;;;5.57;5.07;;;17.90;99.90;;;;;;5122293;28;20182;-80
2022/10/17 08:06:33;;;;;;;5.43;4.97;;;18.00;99.90;;;;;;5124410;28;20654;-79
2022/10/17 08:09:00;;;;;;;6.32;4.90;;;18.10;99.90;;;;;;5118062;28;20179;-79
2022/10/17 08:11:26;;;;;;;5.75;5.00;;;18.10;99.90;;;;;;5118777;28;20202;-78
2022/10/17 08:13:51;;;;;;;6.68;4.75;;;18.00;99.90;;;;;;5120957;28;20167;-79
2022/10/17 08:16:17;;;;;;;6.72;4.63;;;18.00;99.90;;;;;;5116706;28;20598;-79
2022/10/17 08:18:43;;;;;;;5.22;4.65;;;18.00;99.90;;;;;;5118337;28;20197;-78
2022/10/17 08:21:10;;;;;;;6.68;5.95;;;18.00;99.90;;;;;;5114660;28;20585;-79
2022/10/17 08:23:36;;;;;;;7.45;6.65;;;18.00;99.90;;;;;;5118592;28;20171;-79
2022/10/17 08:26:04;;;;;;;9.05;6.82;;;17.90;99.90;;;;;;5123677;28;20171;-79
2022/10/17 08:28:30;;;;;;;7.75;6.97;;;17.90;99.90;;;;;;5116553;28;20187;-80
2022/10/17 08:31:06;;;;;;;7.13;6.53;;;17.90;99.90;;;;;;5112692;28;20233;-81
2022/10/17 08:33:32;;;;;;;8.30;7.57;;;17.80;99.90;;;;;;5073107;28;20258;-81
2022/10/17 08:36:01;;;;;;;8.93;8.13;;;17.80;99.90;;;;;;5094663;28;20317;-81
2022/10/17 08:38:30;;;;;;;10.20;8.93;;;17.80;99.90;;;;;;5096308;28;20573;-80
2022/10/17 08:41:00;;;;;;;9.60;7.78;;;17.90;99.90;;;;;;5078015;28;20227;-80
2022/10/17 08:43:53;;;;;;;12.30;8.07;;;18.00;99.90;;;;;;5096207;28;20164;-80
2022/10/17 08:46:19;;;;;;;11.55;8.23;;;18.00;99.90;;;;;;5095682;28;20214;-80
2022/10/17 08:48:48;;;;;;;10.80;8.32;;;18.10;99.90;;;;;;5095691;28;20621;-80
2022/10/17 08:51:25;;;;;;;10.82;7.50;;;18.00;99.90;;;;;;5095762;28;20627;-80
2022/10/17 08:54:05;;;;;;;9.52;8.15;;;18.00;99.90;;;;;;5095381;28;20570;-80
2022/10/17 08:56:42;;;;;;;12.68;8.75;;;18.00;99.90;;;;;;5096405;28;20204;-80
2022/10/17 08:59:25;;;;;;;13.65;8.48;;;18.00;99.90;;;;;;5078746;28;20175;-79
2022/10/17 09:02:04;;;;;;;12.18;9.02;;;17.90;99.90;;;;;;5094953;28;20631;-79
2022/10/17 09:04:53;;;;;;;8.52;7.50;;;17.90;99.90;;;;;;5094692;28;20259;-76
2022/10/17 09:07:26;;;;;;;10.98;8.07;;;17.90;99.90;;;;;;5079174;28;20616;-79
2022/10/17 09:10:16;;;;;;;9.90;7.10;;;17.90;99.90;;;;;;5094984;28;20227;-78
2022/10/17 09:13:03;;;;;;;11.75;7.80;;;17.90;99.90;;;;;;5096732;28;20172;-79
2022/10/17 09:15:47;;;;;;;9.90;7.70;;;17.90;99.90;;;;;;5094180;28;20209;-79
2022/10/17 09:18:20;;;;;;;10.23;7.80;;;18.00;99.90;;;;;;5094559;28;20172;-79
2022/10/17 09:20:50;;;;;;;9.98;7.72;;;18.10;99.90;;;;;;5091680;28;20215;-78
2022/10/17 09:23:21;;;;;;;10.25;7.75;;;18.20;99.90;;;;;;5088657;28;20184;-79
2022/10/17 09:25:52;;;;;;;12.30;8.50;;;18.20;99.90;;;;;;5074995;28;20173;-80
2022/10/17 09:28:30;;;;;;;11.35;7.65;;;18.30;99.90;;;;;;5093721;28;20195;-79
2022/10/17 09:31:03;;;;;;;10.80;7.47;;;18.20;99.90;;;;;;5090702;27;21102;-79
2022/10/17 09:33:36;;;;;;;9.18;6.97;;;18.20;99.90;;;;;;5116668;27;20167;-80
2022/10/17 09:36:07;;;;;;;11.63;7.70;;;18.20;99.90;;;;;;5125190;27;20214;-79
2022/10/17 09:38:48;;;;;;;9.48;7.32;;;18.20;99.90;;;;;;5130055;27;20186;-80
2022/10/17 09:41:24;;;;;;;8.77;7.40;;;18.30;99.90;;;;;;5124097;27;20182;-80
2022/10/17 09:43:55;;;;;;;13.40;7.88;;;18.20;99.90;;;;;;5131859;27;20642;-80
2022/10/17 09:46:31;;;;;;;12.43;8.00;;;18.10;99.90;;;;;;5129849;27;20182;-80
2022/10/17 09:49:03;;;;;;;10.50;7.57;;;18.20;99.90;;;;;;5128827;27;20251;-81
2022/10/17 09:51:30;;;;;;;11.57;8.50;;;18.20;99.90;;;;;;5134698;27;20173;-79
2022/10/17 09:54:01;;;;;;;10.90;8.45;;;18.30;99.90;;;;;;5132879;27;20319;-80
2022/10/17 09:56:27;;;;;;;14.27;8.63;;;18.40;99.90;;;;;;5128934;27;20234;-80
2022/10/17 09:58:56;;;;;;;10.50;8.00;;;18.40;99.90;;;;;;5131773;27;20194;-80
2022/10/17 10:01:28;;;;;;;10.35;7.47;;;18.50;99.90;;;;;;5111829;27;20629;-79
2022/10/17 10:04:13;;;;;;;8.60;7.30;;;18.50;99.90;;;;;;5105589;28;20266;-80
2022/10/17 10:06:59;;;;;;;11.43;7.68;;;18.40;99.90;;;;;;5109748;27;20168;-80
2022/10/17 10:09:27;;;;;;;16.38;7.90;;;18.50;99.90;;;;;;5119453;27;20178;-80
2022/10/17 10:11:57;;;;;;;10.30;7.90;;;18.30;99.90;;;;;;5111621;27;20192;-79
2022/10/17 10:14:34;;;;;;;12.32;8.18;;;18.50;99.90;;;;;;5125529;27;20387;-79
2022/10/17 10:17:03;;;;;;;11.00;8.38;;;18.50;99.90;;;;;;5123213;27;20748;-80
2022/10/17 10:19:31;;;;;;;10.52;8.65;;;18.50;99.90;;;;;;5132600;27;20186;-80
2022/10/17 10:22:02;;;;;;;9.13;8.07;;;18.60;99.90;;;;;;5128124;27;20189;-80
2022/10/17 10:24:29;;;;;;;15.95;9.07;;;18.80;99.90;;;;;;5127706;27;20194;-80
2022/10/17 10:27:01;;;;;;;14.05;8.77;;;18.90;99.90;;;;;;5129218;27;20542;-80
2022/10/17 10:29:30;;;;;;;9.35;8.02;;;18.80;99.90;;;;;;5133286;27;20178;-79
2022/10/17 10:32:10;;;;;;;12.00;8.45;;;18.60;99.90;;;;;;5121578;27;20219;-80
2022/10/17 10:34:44;;;;;;;11.68;8.02;;;18.70;99.90;;;;;;5112482;28;20171;-80
2022/10/17 10:37:20;;;;;;;11.23;7.97;;;18.80;99.90;;;;;;5096642;28;20198;-80
2022/10/17 10:39:48;;;;;;;12.02;7.85;;;18.90;99.90;;;;;;5112781;28;20175;-81
2022/10/17 10:42:38;;;;;;;10.90;7.85;;;18.90;99.90;;;;;;5113189;28;20167;-81
2022/10/17 10:45:16;;;;;;;8.90;7.82;;;19.20;99.90;;;;;;5099544;28;20240;-80
2022/10/17 10:48:10;;;;;;;8.45;7.53;;;19.20;99.90;;;;;;5109783;28;20186;-80
2022/10/17 10:50:41;;;;;;;9.40;7.32;;;19.20;99.90;;;;;;5098454;28;20184;-81
2022/10/17 10:53:41;;;;;;;10.98;7.03;;;19.20;99.90;;;;;;5101663;28;20171;-80
2022/10/17 10:56:29;;;;;;;10.32;7.55;;;19.10;99.90;;;;;;5102762;28;20946;-80
2022/10/17 10:58:55;;;;;;;10.75;7.68;;;19.10;99.90;;;;;;5098463;28;20175;-78
2022/10/17 11:01:30;;;;;;;11.07;7.65;;;19.00;99.90;;;;;;5092860;28;20666;-78
2022/10/17 11:04:17;;;;;;;7.10;6.50;;;19.00;99.90;;;;;;5112359;28;20504;-79
2022/10/17 11:06:44;;;;;;;12.25;7.82;;;18.90;99.90;;;;;;5102039;28;20176;-81
2022/10/17 11:09:38;;;;;;;9.40;8.05;;;19.10;99.90;;;;;;5093752;28;20174;-80
2022/10/17 11:12:21;;;;;;;10.18;7.63;;;19.20;99.90;;;;;;5110609;28;20653;-79
2022/10/17 11:15:08;;;;;;;9.82;6.55;;;19.10;99.90;;;;;;5105764;28;20631;-77
2022/10/17 11:17:49;;;;;;;8.70;6.95;;;19.10;99.90;;;;;;5099888;28;20245;-77
2022/10/17 11:20:37;;;;;;;10.88;7.40;;;19.20;99.90;;;;;;5096972;28;20637;-78
2022/10/17 11:23:42;;;;;;;13.02;7.10;;;19.30;99.90;;;;;;5111325;28;20178;-77
2022/10/17 11:26:24;;;;;;;7.78;7.07;;;19.40;99.90;;;;;;5106760;28;20792;-80
2022/10/17 11:28:51;;;;;;;10.02;7.10;;;19.30;99.90;;;;;;5105781;28;20203;-80
2022/10/17 11:31:18;;;;;;;11.77;7.10;;;19.10;99.90;;;;;;5107458;28;20222;-79
2022/10/17 11:33:59;;;;;;;8.80;7.43;;;19.00;99.90;;;;;;5099801;28;20179;-80
2022/10/17 11:36:38;;;;;;;12.52;7.15;;;18.90;99.90;;;;;;5103927;28;20214;-79
2022/10/17 11:39:10;;;;;;;12.00;7.95;;;18.90;99.90;;;;;;5106123;28;20255;-78
2022/10/17 11:41:56;;;;;;;9.98;7.20;;;18.80;99.90;;;;;;5110894;28;20307;-79
2022/10/17 11:44:38;;;;;;;35.20;32.10;;;18.80;99.90;;;;;;5050303;28;20205;-78
2022/10/17 11:47:45;;;;;;;11.55;10.35;;;18.80;99.90;;;;;;5113677;27;20296;-76
2022/10/17 11:50:31;;;;;;;14.80;10.07;;;18.70;99.90;;;;;;5097968;27;20252;-80
2022/10/17 11:53:02;;;;;;;13.48;7.75;;;18.80;99.90;;;;;;5115883;28;20643;-79
2022/10/17 11:55:30;;;;;;;13.43;8.27;;;18.70;99.90;;;;;;5108015;28;20504;-78
2022/10/17 11:58:30;;;;;;;9.90;7.38;;;18.80;99.90;;;;;;5103237;28;20242;-79
2022/10/17 12:01:03;;;;;;;10.38;7.25;;;19.00;99.90;;;;;;5097533;28;20244;-78
2022/10/17 12:03:53;;;;;;;12.40;7.55;;;19.00;99.90;;;;;;5104974;28;20167;-78
2022/10/17 12:06:36;;;;;;;10.25;7.63;;;19.20;99.90;;;;;;5111094;28;20159;-79
2022/10/17 12:09:09;;;;;;;11.93;7.88;;;19.10;99.90;;;;;;5110897;28;20186;-79
2022/10/17 12:11:57;;;;;;;9.80;7.65;;;19.10;99.90;;;;;;5112439;28;20175;-78
2022/10/17 12:14:32;;;;;;;11.20;7.10;;;19.10;99.90;;;;;;5116550;28;20662;-77
2022/10/17 12:17:01;;;;;;;10.52;7.22;;;19.10;99.90;;;;;;5114657;28;20631;-78
2022/10/17 12:19:36;;;;;;;8.45;7.13;;;19.10;99.90;;;;;;5116072;28;20174;-77
2022/10/17 12:22:23;;;;;;;8.63;7.75;;;19.40;99.90;;;;;;5115588;28;20177;-80
2022/10/17 12:24:59;;;;;;;16.58;8.50;;;19.40;99.90;;;;;;5115441;28;20291;-79
2022/10/17 12:27:41;;;;;;;12.70;7.25;;;19.50;99.90;;;;;;5115786;28;20649;-79
2022/10/17 12:30:16;;;;;;;13.35;8.20;;;19.50;99.90;;;;;;5107127;28;20202;-79
2022/10/17 12:33:02;;;;;;;10.25;8.07;;;19.60;99.90;;;;;;5106473;28;20219;-81
2022/10/17 12:35:29;;;;;;;10.88;7.80;;;19.70;99.90;;;;;;5101644;28;20189;-78
2022/10/17 12:37:59;;;;;;;10.88;7.35;;;19.60;99.90;;;;;;5115603;28;20183;-78
2022/10/17 12:40:34;;;;;;;9.13;8.23;;;19.50;99.90;;;;;;5115527;28;20538;-78
2022/10/17 12:43:12;;;;;;;10.63;8.20;;;19.30;99.90;;;;;;5114807;28;20253;-78
2022/10/17 12:45:48;;;;;;;12.23;8.95;;;19.20;99.90;;;;;;5114100;28;20171;-79
2022/10/17 12:48:35;;;;;;;14.68;8.55;;;19.20;99.90;;;;;;5125478;27;20285;-80
2022/10/17 12:51:09;;;;;;;20.00;8.82;;;19.50;99.90;;;;;;5114375;28;20246;-80
2022/10/17 12:53:50;;;;;;;15.57;11.00;;;19.50;99.90;;;;;;5115081;28;20241;-80
2022/10/17 12:56:19;;;;;;;13.40;12.05;;;19.60;99.90;;;;;;5113231;28;20195;-80
2022/10/17 12:58:47;;;;;;;12.18;9.25;;;19.50;99.90;;;;;;5129695;27;20181;-78
2022/10/17 13:01:29;;;;;;;12.73;7.82;;;19.40;99.90;;;;;;5113547;28;20229;-78
2022/10/17 13:03:56;;;;;;;10.85;7.60;;;19.50;99.90;;;;;;5104747;28;20190;-78
2022/10/17 13:06:25;;;;;;;8.63;6.95;;;19.50;99.90;;;;;;5109164;28;20172;-78